Time;durP1;ratioP1;P1;durP2;ratioP2;P2;SDS_P1;SDS_P2;PMS_P1;PMS_P2;Temp;Humidity;BMP_temperature;BMP_pressure;BME280_temperature;BME280_humidity;BME280_pressure;Samples;Min_cycle;Max_cycle;Signal;HPM_P1;HPM_P2
2024/01/01 00:04:50;;;;;;;41.20;20.33;;;;;;;18.84;43.65;95969.81;10394805;28;20030;-30
2024/01/01 00:09:51;;;;;;;25.37;17.70;;;;;;;19.05;46.06;95969.50;10402785;28;20034;-30
2024/01/01 00:14:51;;;;;;;22.15;12.23;;;;;;;18.73;43.64;95967.41;10406217;28;20306;-31
2024/01/01 00:19:52;;;;;;;25.37;15.97;;;;;;;19.00;45.22;95963.66;10409105;28;20048;-30
2024/01/01 00:24:52;;;;;;;23.33;14.53;;;;;;;19.18;46.39;95955.78;10399141;28;20120;-32
2024/01/01 00:29:53;;;;;;;25.47;14.87;;;;;;;19.31;47.37;95957.28;10408640;28;20298;-30
2024/01/01 00:34:53;;;;;;;25.58;17.02;;;;;;;19.41;48.89;95979.97;10409002;28;20048;-31
2024/01/01 00:39:56;;;;;;;21.70;14.90;;;;;;;19.46;49.56;95962.13;10411604;28;20151;-30
2024/01/01 00:44:57;;;;;;;23.38;14.30;;;;;;;19.51;49.60;95966.28;10402400;28;20044;-30
2024/01/01 00:49:58;;;;;;;23.02;14.25;;;;;;;19.50;50.38;95974.75;10405311;28;20503;-30
2024/01/01 00:54:58;;;;;;;23.70;13.85;;;;;;;19.53;50.29;95994.19;10414361;28;20041;-30
2024/01/01 00:59:58;;;;;;;22.00;13.90;;;;;;;19.51;49.97;95965.44;10410008;28;20048;-30
2024/01/01 01:04:59;;;;;;;20.53;12.47;;;;;;;19.49;50.22;95992.56;10415354;28;20288;-30
2024/01/01 01:09:59;;;;;;;17.67;12.07;;;;;;;19.45;50.46;95988.38;10411315;28;20025;-31
2024/01/01 01:15:00;;;;;;;20.33;13.83;;;;;;;19.44;50.95;95999.41;10412512;28;20038;-30
2024/01/01 01:20:00;;;;;;;29.40;13.77;;;;;;;19.41;50.99;96000.28;10421882;28;20037;-30
2024/01/01 01:25:01;;;;;;;19.15;12.95;;;;;;;19.38;51.46;95989.34;10419453;28;20793;-30
2024/01/01 01:30:02;;;;;;;21.10;12.77;;;;;;;19.45;51.05;95988.38;10419733;28;20079;-30
2024/01/01 01:35:03;;;;;;;16.73;11.55;;;;;;;19.44;51.31;95991.78;10423660;28;20491;-30
2024/01/01 01:40:04;;;;;;;22.92;13.40;;;;;;;19.47;51.96;95995.13;10417428;28;20034;-30
2024/01/01 01:45:05;;;;;;;19.13;12.30;;;;;;;19.50;51.51;96017.09;10419116;28;20140;-29
2024/01/01 01:50:06;;;;;;;18.10;13.77;;;;;;;19.49;52.01;96023.03;10418585;28;20112;-30
2024/01/01 01:55:08;;;;;;;16.63;12.13;;;;;;;19.50;51.74;96029.78;10417273;28;20037;-30
2024/01/01 02:00:09;;;;;;;15.98;12.45;;;;;;;19.51;52.27;96036.53;10419510;28;20029;-30
2024/01/01 02:05:13;;;;;;;16.40;12.52;;;;;;;19.51;52.38;96051.75;10421240;28;20115;-30
2024/01/01 02:10:13;;;;;;;16.83;12.83;;;;;;;19.53;52.04;96050.88;10418151;28;20449;-31
2024/01/01 02:15:13;;;;;;;17.53;12.37;;;;;;;19.53;52.16;96037.34;10412291;28;20514;-30
2024/01/01 02:20:15;;;;;;;18.63;11.97;;;;;;;19.55;52.03;96038.16;10414837;28;20307;-30
2024/01/01 02:25:16;;;;;;;17.42;12.00;;;;;;;19.55;51.97;96046.63;10419241;28;20288;-30
2024/01/01 02:30:16;;;;;;;13.93;11.40;;;;;;;19.56;52.04;96042.38;10419201;28;20041;-32
2024/01/01 02:35:19;;;;;;;15.35;11.23;;;;;;;19.56;51.99;96034.75;10404027;28;20485;-31
2024/01/01 02:40:19;;;;;;;15.63;11.57;;;;;;;19.49;52.17;96045.88;10403437;28;20510;-31
2024/01/01 02:45:22;;;;;;;16.40;10.60;;;;;;;19.53;52.40;96055.13;10407840;28;20040;-30
2024/01/01 02:50:22;;;;;;;19.80;10.98;;;;;;;19.47;52.61;96057.72;10395353;28;20034;-30
2024/01/01 02:55:23;;;;;;;15.68;10.52;;;;;;;19.50;52.81;96062.78;10423983;28;20041;-30
2024/01/01 03:00:23;;;;;;;20.80;11.90;;;;;;;19.49;53.12;96074.63;10407518;28;20094;-32
2024/01/01 03:05:25;;;;;;;17.47;10.17;;;;;;;19.50;53.14;96060.25;10401930;28;20088;-30
2024/01/01 03:10:25;;;;;;;16.70;10.55;;;;;;;19.48;52.96;96067.88;10400558;28;20029;-30
2024/01/01 03:15:26;;;;;;;19.33;10.07;;;;;;;19.42;53.05;96069.66;10397754;28;20404;-30
2024/01/01 03:20:31;;;;;;;16.77;10.30;;;;;;;19.49;53.27;96078.88;10400116;28;20037;-30
2024/01/01 03:25:31;;;;;;;14.13;10.02;;;;;;;19.47;53.48;96060.28;10409075;28;20110;-30
2024/01/01 03:30:31;;;;;;;15.33;10.93;;;;;;;19.49;53.67;96066.19;10399954;28;20033;-30
2024/01/01 03:35:32;;;;;;;12.20;9.50;;;;;;;19.49;53.41;96074.63;10401349;28;20052;-30
2024/01/01 03:40:32;;;;;;;20.10;10.37;;;;;;;19.51;53.89;96072.06;10415265;28;20033;-30
2024/01/01 03:45:32;;;;;;;20.83;10.53;;;;;;;19.51;53.51;96074.63;10403658;28;20619;-30
2024/01/01 03:50:33;;;;;;;14.13;9.50;;;;;;;19.50;53.34;96066.16;10399334;28;20381;-29
2024/01/01 03:55:33;;;;;;;12.02;9.32;;;;;;;19.51;53.76;96062.75;10408054;28;20299;-31
2024/01/01 04:00:34;;;;;;;11.10;9.53;;;;;;;19.53;53.40;96085.59;10394357;28;20087;-31
2024/01/01 04:05:34;;;;;;;11.82;9.30;;;;;;;19.47;53.59;96075.50;10395615;28;20034;-30
2024/01/01 04:10:34;;;;;;;12.93;9.10;;;;;;;19.51;53.64;96082.22;10403665;28;20025;-30
2024/01/01 04:15:35;;;;;;;16.83;9.47;;;;;;;19.53;53.72;96080.50;10408817;28;20037;-30
2024/01/01 04:20:35;;;;;;;15.07;10.03;;;;;;;19.53;53.67;96080.50;10390742;28;20476;-30
2024/01/01 04:25:36;;;;;;;12.17;9.17;;;;;;;19.53;53.55;96071.19;10413465;28;20469;-32
2024/01/01 04:30:36;;;;;;;12.03;8.87;;;;;;;19.52;53.59;96078.84;10403784;28;20028;-30
2024/01/01 04:35:36;;;;;;;12.37;8.27;;;;;;;19.46;53.77;96074.69;10391095;28;20037;-30
2024/01/01 04:40:37;;;;;;;12.90;8.90;;;;;;;19.51;54.33;96074.63;10403109;28;20503;-31
2024/01/01 04:45:37;;;;;;;12.80;8.43;;;;;;;19.50;54.59;96085.63;10393809;28;20041;-30
2024/01/01 04:50:38;;;;;;;11.33;8.43;;;;;;;19.52;54.08;96083.91;10402986;28;20030;-30
2024/01/01 04:55:38;;;;;;;12.57;8.30;;;;;;;19.52;54.36;96081.38;10410123;28;20271;-29
2024/01/01 05:00:38;;;;;;;11.13;8.20;;;;;;;19.51;54.67;96082.22;10410980;28;20295;-30
2024/01/01 05:05:39;;;;;;;10.10;7.80;;;;;;;19.52;54.79;96091.53;10416582;28;20300;-31
2024/01/01 05:10:40;;;;;;;11.27;8.97;;;;;;;19.52;54.86;96104.22;10410209;28;20036;-30
2024/01/01 05:15:42;;;;;;;10.18;8.02;;;;;;;19.52;54.87;96089.00;10412204;28;20124;-30
2024/01/01 05:20:43;;;;;;;10.55;8.00;;;;;;;19.50;54.92;96090.72;10404816;28;20519;-30
2024/01/01 05:25:43;;;;;;;8.40;7.53;;;;;;;19.51;54.88;96090.66;10404742;28;20049;-31
2024/01/01 05:30:44;;;;;;;9.90;8.00;;;;;;;19.52;54.92;96099.97;10397457;28;20033;-30
2024/01/01 05:35:44;;;;;;;15.20;8.13;;;;;;;19.53;55.00;96108.44;10404409;28;20033;-30
2024/01/01 05:40:46;;;;;;;12.50;7.72;;;;;;;19.56;54.21;96109.22;10418273;28;20072;-30
2024/01/01 05:45:47;;;;;;;12.52;8.40;;;;;;;19.55;54.84;96120.25;10411090;28;20514;-30
2024/01/01 05:50:47;;;;;;;9.32;7.60;;;;;;;19.53;54.82;96133.81;10413224;28;20119;-30
2024/01/01 05:55:48;;;;;;;9.67;7.33;;;;;;;19.51;55.08;96123.69;10419918;28;20039;-29
2024/01/01 06:00:48;;;;;;;11.53;9.00;;;;;;;19.53;55.23;96123.66;10413844;28;20030;-30
2024/01/01 06:05:48;;;;;;;12.43;7.80;;;;;;;19.51;55.05;96120.31;10405237;28;20037;-30
2024/01/01 06:10:49;;;;;;;10.53;7.73;;;;;;;19.54;55.35;96132.97;10398955;28;20048;-30
2024/01/01 06:15:51;;;;;;;11.30;8.07;;;;;;;19.54;55.32;96127.88;10416489;28;20049;-30
2024/01/01 06:20:51;;;;;;;9.45;7.15;;;;;;;19.48;55.59;96138.09;10407359;28;20041;-30
2024/01/01 06:25:52;;;;;;;9.27;7.27;;;;;;;19.55;55.01;96144.78;10408028;28;20037;-31
2024/01/01 06:30:52;;;;;;;9.40;7.03;;;;;;;19.52;55.19;96130.44;10404195;28;20025;-30
2024/01/01 06:35:53;;;;;;;8.63;7.28;;;;;;;19.54;54.55;96135.50;10400349;28;20303;-30
2024/01/01 06:40:53;;;;;;;8.60;7.03;;;;;;;19.56;54.92;96136.31;10405164;28;20037;-30
2024/01/01 06:45:53;;;;;;;9.80;7.00;;;;;;;19.52;55.02;96148.19;10409382;28;20399;-32
2024/01/01 06:50:54;;;;;;;7.97;6.87;;;;;;;19.52;54.65;96155.81;10406565;28;20399;-30
2024/01/01 06:55:54;;;;;;;12.40;7.50;;;;;;;19.55;55.43;96160.88;10400918;28;20125;-30
2024/01/01 07:00:54;;;;;;;10.10;7.70;;;;;;;19.55;55.52;96162.56;10403072;28;20311;-30
2024/01/01 07:05:55;;;;;;;11.67;7.27;;;;;;;19.54;55.69;96164.28;10402211;28;20166;-30
2024/01/01 07:10:57;;;;;;;8.93;7.40;;;;;;;19.55;55.38;96175.25;10399096;28;20041;-30
2024/01/01 07:15:58;;;;;;;7.90;6.50;;;;;;;19.57;55.54;96173.53;10400697;28;20072;-30
2024/01/01 07:21:00;;;;;;;8.40;6.90;;;;;;;19.56;55.10;96187.94;10397577;28;20548;-30
2024/01/01 07:26:00;;;;;;;8.10;7.13;;;;;;;19.56;55.12;96200.63;10406755;28;20045;-30
2024/01/01 07:31:01;;;;;;;9.33;6.87;;;;;;;19.57;55.42;96201.47;10401005;28;20029;-30
2024/01/01 07:36:01;;;;;;;7.82;6.60;;;;;;;19.57;55.61;96226.84;10397007;28;20311;-30
2024/01/01 07:41:02;;;;;;;7.17;6.33;;;;;;;19.55;56.08;96220.97;10393886;28;20037;-31
2024/01/01 07:46:03;;;;;;;13.37;6.80;;;;;;;19.56;55.85;96222.63;10402091;28;20331;-30
2024/01/01 07:51:03;;;;;;;10.80;7.03;;;;;;;19.51;55.76;96209.19;10399894;28;20488;-30
2024/01/01 07:56:07;;;;;;;8.18;5.88;;;;;;;19.57;55.06;96231.94;10401567;28;20084;-31
2024/01/01 08:01:07;;;;;;;7.45;5.85;;;;;;;19.57;55.32;96220.09;10399594;28;20124;-32
2024/01/01 08:06:08;;;;;;;6.95;5.32;;;;;;;19.59;55.22;96227.69;10401888;28;20047;-28
2024/01/01 08:11:08;;;;;;;8.52;4.82;;;;;;;19.54;53.36;96247.22;10402983;28;20030;-28
2024/01/01 08:16:08;;;;;;;9.33;5.77;;;;;;;19.58;53.62;96228.56;10409434;28;20037;-28
2024/01/01 08:21:09;;;;;;;7.47;5.23;;;;;;;19.57;53.41;96209.09;10407134;28;20049;-30
2024/01/01 08:26:09;;;;;;;9.03;5.70;;;;;;;19.58;53.53;96221.78;10406400;28;20041;-30
2024/01/01 08:31:09;;;;;;;12.17;4.93;;;;;;;19.59;49.59;96204.84;10407416;28;20292;-31
2024/01/01 08:36:10;;;;;;;6.90;4.17;;;;;;;19.59;50.05;96232.78;10402463;28;20296;-30
2024/01/01 08:41:10;;;;;;;10.03;3.90;;;;;;;19.56;49.63;96228.56;10400468;28;20484;-30
2024/01/01 08:46:11;;;;;;;8.95;3.95;;;;;;;19.54;50.08;96231.97;10399181;28;20041;-30
2024/01/01 08:51:11;;;;;;;6.57;3.83;;;;;;;19.55;51.28;96238.75;10407169;28;20041;-30
2024/01/01 08:56:12;;;;;;;6.25;3.65;;;;;;;19.56;51.64;96237.88;10407796;28;20519;-31
2024/01/01 09:01:12;;;;;;;11.33;4.00;;;;;;;19.50;52.15;96230.34;10406047;28;20103;-30
2024/01/01 09:06:13;;;;;;;8.87;3.80;;;;;;;19.52;52.61;96236.25;10412301;28;20408;-30
2024/01/01 09:11:13;;;;;;;6.17;3.80;;;;;;;19.55;52.70;96241.28;10407168;28;20516;-30
2024/01/01 09:16:13;;;;;;;7.27;4.13;;;;;;;19.58;52.33;96241.25;10404297;28;20344;-30
2024/01/01 09:21:17;;;;;;;5.67;3.30;;;;;;;19.56;52.67;96246.34;10405712;28;20306;-30
2024/01/01 09:26:17;;;;;;;7.68;3.60;;;;;;;19.57;52.79;96245.47;10414132;28;20040;-30
2024/01/01 09:31:18;;;;;;;6.97;3.63;;;;;;;19.58;52.96;96246.34;10410461;28;20041;-30
2024/01/01 09:36:18;;;;;;;8.10;3.67;;;;;;;19.59;52.68;96248.00;10406621;28;20048;-30
2024/01/01 09:41:18;;;;;;;8.48;3.35;;;;;;;19.58;53.11;96257.31;10413960;28;20794;-30
2024/01/01 09:46:20;;;;;;;8.43;3.30;;;;;;;19.50;53.12;96237.97;10413340;28;20124;-29
2024/01/01 09:51:20;;;;;;;10.52;3.47;;;;;;;19.55;53.49;96257.38;10416125;28;20037;-30
2024/01/01 09:56:21;;;;;;;5.20;3.53;;;;;;;19.55;53.01;96269.22;10415570;28;20071;-30
2024/01/01 10:01:21;;;;;;;6.28;3.40;;;;;;;19.60;52.91;96270.00;10411897;28;20307;-30
2024/01/01 10:06:22;;;;;;;6.57;3.27;;;;;;;19.60;52.98;96265.75;10407645;28;20120;-30
2024/01/01 10:11:22;;;;;;;6.10;2.67;;;;;;;19.62;53.02;96278.44;10416064;28;20235;-31
2024/01/01 10:16:26;;;;;;;5.10;2.63;;;;;;;19.60;52.52;96285.25;10417461;28;20069;-30
2024/01/01 10:21:31;;;;;;;6.45;3.40;;;;;;;19.64;52.84;96289.41;10405849;28;20033;-32
2024/01/01 10:26:32;;;;;;;8.40;3.00;;;;;;;19.67;53.25;96281.78;10405137;28;20079;-30
2024/01/01 10:31:33;;;;;;;7.53;3.13;;;;;;;19.67;53.20;96284.31;10399767;28;20025;-31
2024/01/01 10:36:34;;;;;;;13.70;3.75;;;;;;;19.67;53.14;96292.75;10403357;28;20473;-31
2024/01/01 10:41:36;;;;;;;9.93;3.38;;;;;;;19.61;53.34;96287.75;10407266;28;20034;-31
2024/01/01 10:46:39;;;;;;;5.68;3.35;;;;;;;19.65;52.63;96288.56;10397454;28;20117;-30
2024/01/01 10:51:52;;;;;;;8.25;3.65;;;;;;;19.67;53.98;96291.94;10402517;28;20029;-31
2024/01/01 10:57:23;;;;;;;11.25;3.28;;;;;;;19.68;55.38;96286.81;10402732;28;20095;-32
2024/01/01 11:02:25;;;;;;;5.95;3.40;;;;;;;19.68;54.59;96306.31;10400568;28;20045;-30
2024/01/01 11:07:58;;;;;;;8.93;3.83;;;;;;;19.66;54.85;96302.97;10400651;28;20084;-30
2024/01/01 11:12:58;;;;;;;9.40;3.65;;;;;;;19.65;54.93;96308.88;10403082;28;20045;-30
2024/01/01 11:18:10;;;;;;;13.87;3.87;;;;;;;19.58;54.59;96289.50;10401256;28;20037;-30
2024/01/01 11:23:41;;;;;;;7.78;3.13;;;;;;;19.64;54.95;96309.72;10400702;28;20188;-31
2024/01/01 11:28:41;;;;;;;3.92;2.83;;;;;;;19.63;53.84;96310.59;10398473;28;20037;-29
2024/01/01 11:33:42;;;;;;;6.47;3.27;;;;;;;19.69;53.89;96315.63;10398667;28;20033;-30
2024/01/01 11:38:48;;;;;;;8.57;3.05;;;;;;;19.70;53.92;96294.44;10406720;28;20035;-29
2024/01/01 11:43:49;;;;;;;5.07;2.95;;;;;;;19.70;53.63;96312.22;10419470;28;20028;-31
2024/01/01 11:49:00;;;;;;;6.10;2.60;;;;;;;19.74;53.61;96311.31;10407206;28;20045;-30
2024/01/01 11:54:05;;;;;;;8.55;2.72;;;;;;;19.67;54.09;96292.75;10412806;28;20041;-30
2024/01/01 11:59:06;;;;;;;6.20;2.60;;;;;;;19.80;53.47;96301.09;10404984;28;20128;-30
2024/01/01 12:04:07;;;;;;;7.45;3.05;;;;;;;19.82;54.16;96297.66;10406560;28;20075;-30
2024/01/01 12:09:12;;;;;;;11.73;3.30;;;;;;;19.83;54.13;96299.34;10401323;28;20073;-31
2024/01/01 12:14:13;;;;;;;6.25;2.88;;;;;;;19.75;55.37;96290.97;10399205;28;20040;-30
2024/01/01 12:19:19;;;;;;;10.55;2.60;;;;;;;19.65;54.07;96293.63;10405308;28;20064;-30
2024/01/01 12:24:20;;;;;;;7.03;2.22;;;;;;;19.42;47.51;96285.44;10402682;28;20562;-30
2024/01/01 12:29:20;;;;;;;6.97;1.95;;;;;;;19.12;48.50;96278.09;10401804;28;20033;-30
2024/01/01 12:34:21;;;;;;;8.73;1.83;;;;;;;19.13;47.36;96300.06;10402383;28;20342;-30
2024/01/01 12:39:21;;;;;;;21.17;3.00;;;;;;;19.01;47.62;96293.41;10396518;28;20794;-30
2024/01/01 12:44:23;;;;;;;6.93;1.70;;;;;;;19.03;45.93;96281.56;10403503;28;20295;-30
2024/01/01 12:49:23;;;;;;;10.57;2.45;;;;;;;18.88;44.02;96286.78;10401783;28;20067;-29
2024/01/01 12:54:24;;;;;;;5.07;1.63;;;;;;;18.63;45.05;96269.22;10400645;28;20025;-30
2024/01/01 12:59:24;;;;;;;7.33;2.07;;;;;;;18.98;45.34;96257.06;10399597;28;20033;-30
2024/01/01 13:04:25;;;;;;;8.85;2.03;;;;;;;19.15;47.94;96250.13;10400221;28;20029;-30
2024/01/01 13:09:25;;;;;;;8.68;1.55;;;;;;;19.27;48.15;96260.22;10419040;28;20048;-31
2024/01/01 13:14:25;;;;;;;8.73;1.73;;;;;;;19.32;48.05;96258.47;10401193;28;20034;-30
2024/01/01 13:19:26;;;;;;;9.83;2.13;;;;;;;19.39;47.82;96265.16;10408012;28;20044;-30
2024/01/01 13:24:27;;;;;;;5.95;1.65;;;;;;;19.40;48.93;96267.69;10405094;28;20041;-30
2024/01/01 13:29:27;;;;;;;9.15;1.92;;;;;;;19.42;49.52;96267.69;10402369;28;20041;-30
2024/01/01 13:34:28;;;;;;;6.90;2.20;;;;;;;19.21;47.76;96265.34;10408981;28;20033;-30
2024/01/01 13:39:28;;;;;;;6.70;1.70;;;;;;;19.23;47.03;96268.69;10405850;28;20037;-30
2024/01/01 13:44:28;;;;;;;4.67;2.00;;;;;;;19.27;48.04;96253.44;10407130;28;20438;-30
2024/01/01 13:49:29;;;;;;;7.77;1.77;;;;;;;19.38;48.60;96264.34;10427297;28;20534;-30
2024/01/01 13:54:29;;;;;;;6.47;1.77;;;;;;;19.28;47.94;96246.66;10414732;28;20052;-30
2024/01/01 13:59:30;;;;;;;2.30;1.13;;;;;;;19.38;48.70;96258.41;10411395;28;20041;-30
2024/01/01 14:04:30;;;;;;;5.88;2.05;;;;;;;19.38;49.51;96253.31;10397023;28;20117;-30
2024/01/01 14:09:31;;;;;;;7.03;1.63;;;;;;;19.31;48.37;96249.16;10414006;28;20033;-30
2024/01/01 14:14:32;;;;;;;6.73;2.30;;;;;;;19.40;49.04;96257.53;10404271;28;20531;-30
2024/01/01 14:19:33;;;;;;;5.10;1.65;;;;;;;19.38;50.22;96248.25;10399109;28;20292;-31
2024/01/01 14:24:34;;;;;;;3.45;1.48;;;;;;;19.16;48.34;96241.69;10398465;28;20555;-30
2024/01/01 14:29:34;;;;;;;4.40;1.43;;;;;;;19.28;49.12;96262.75;10402511;28;20034;-29
2024/01/01 14:34:36;;;;;;;3.37;1.57;;;;;;;19.31;49.90;96259.31;10398351;28;20044;-30
2024/01/01 14:39:36;;;;;;;4.85;1.80;;;;;;;18.92;46.50;96259.69;10408662;28;20088;-30
2024/01/01 14:44:36;;;;;;;5.15;2.28;;;;;;;19.16;48.39;96267.06;10408551;28;20041;-30
2024/01/01 14:49:37;;;;;;;4.17;1.47;;;;;;;19.25;49.25;96277.16;10389703;28;20038;-32
2024/01/01 14:54:40;;;;;;;5.67;2.13;;;;;;;19.25;50.10;96284.78;10377080;28;20674;-30
2024/01/01 14:59:41;;;;;;;4.90;1.70;;;;;;;19.30;49.50;96283.88;10405265;28;20105;-30
2024/01/01 15:04:43;;;;;;;6.53;1.38;;;;;;;19.30;49.75;96294.03;10410320;28;20036;-31
2024/01/01 15:09:45;;;;;;;3.25;1.35;;;;;;;19.33;49.80;96300.78;10403001;28;20061;-31
2024/01/01 15:14:45;;;;;;;3.88;1.85;;;;;;;19.25;50.15;96285.59;10410479;28;20211;-30
2024/01/01 15:19:45;;;;;;;3.77;1.30;;;;;;;19.34;50.12;96297.38;10399791;28;20037;-30
2024/01/01 15:24:46;;;;;;;4.03;1.30;;;;;;;19.27;50.63;96300.81;10404379;28;20064;-30
2024/01/01 15:29:47;;;;;;;3.38;1.25;;;;;;;19.34;50.66;96320.22;10414915;28;20099;-30
2024/01/01 15:34:47;;;;;;;5.93;1.63;;;;;;;19.32;51.03;96337.13;10400904;28;20039;-31
2024/01/01 15:39:47;;;;;;;3.53;1.37;;;;;;;19.31;51.71;96343.94;10406254;28;20644;-30
2024/01/01 15:44:48;;;;;;;3.20;1.50;;;;;;;19.30;51.38;96349.00;10398480;28;20127;-30
2024/01/01 15:49:48;;;;;;;5.30;1.20;;;;;;;19.28;51.82;96350.72;10408045;28;20281;-29
2024/01/01 15:54:48;;;;;;;3.10;0.97;;;;;;;19.28;52.02;96345.66;10397430;28;20057;-30
2024/01/01 15:59:49;;;;;;;3.03;1.90;;;;;;;19.27;51.87;96357.50;10395202;28;20052;-30
2024/01/01 16:04:49;;;;;;;4.63;1.97;;;;;;;19.25;52.30;96353.31;10400411;28;20292;-31
2024/01/01 16:09:49;;;;;;;3.27;1.47;;;;;;;19.27;52.36;96361.75;10398218;28;20243;-30
2024/01/01 16:14:50;;;;;;;2.67;1.10;;;;;;;19.28;52.44;96373.56;10399202;28;20272;-30
2024/01/01 16:19:51;;;;;;;2.50;1.20;;;;;;;19.31;52.01;96368.47;10395749;28;20040;-30
2024/01/01 16:24:51;;;;;;;2.63;0.80;;;;;;;19.32;51.77;96372.69;10413254;28;20052;-30
2024/01/01 16:29:51;;;;;;;1.30;0.97;;;;;;;19.32;51.81;96367.59;10407696;28;20295;-30
2024/01/01 16:34:52;;;;;;;2.20;1.30;;;;;;;19.35;51.47;96375.22;10390479;28;20045;-30
2024/01/01 16:39:52;;;;;;;6.80;1.20;;;;;;;19.37;51.79;96368.41;10390280;28;20479;-30
2024/01/01 16:44:52;;;;;;;5.13;1.70;;;;;;;19.36;52.34;96351.50;10394557;28;20041;-30
2024/01/01 16:49:53;;;;;;;4.33;1.10;;;;;;;19.31;52.00;96363.38;10392421;28;20507;-30
2024/01/01 16:54:54;;;;;;;3.37;1.30;;;;;;;19.33;51.89;96359.16;10381628;28;20030;-30
2024/01/01 16:59:54;;;;;;;4.32;1.48;;;;;;;19.34;51.78;96353.22;10392564;28;20295;-30
2024/01/01 17:04:54;;;;;;;2.07;0.90;;;;;;;19.30;51.92;96361.69;10404370;28;20033;-30
2024/01/01 17:09:55;;;;;;;2.77;1.10;;;;;;;19.30;52.13;96365.09;10399732;28;20041;-30
2024/01/01 17:14:55;;;;;;;3.30;2.20;;;;;;;19.29;51.74;96365.09;10396632;28;20398;-30
2024/01/01 17:19:55;;;;;;;2.60;1.30;;;;;;;19.28;51.56;96350.72;10404850;28;20120;-31
2024/01/01 17:24:56;;;;;;;4.93;1.30;;;;;;;19.29;51.46;96362.56;10404778;28;20045;-30
2024/01/01 17:29:56;;;;;;;7.20;1.00;;;;;;;19.33;50.98;96366.78;10398924;28;20048;-30
2024/01/01 17:34:56;;;;;;;4.97;1.37;;;;;;;19.34;50.49;96376.06;10402051;28;20491;-30
2024/01/01 17:39:57;;;;;;;6.73;1.43;;;;;;;19.29;51.86;96376.09;10398478;28;20108;-31
2024/01/01 17:44:57;;;;;;;4.50;1.20;;;;;;;19.31;51.57;96394.69;10400203;28;20511;-30
2024/01/01 17:49:58;;;;;;;4.57;1.10;;;;;;;19.28;51.64;96391.34;10409297;28;20475;-31
2024/01/01 17:54:58;;;;;;;4.50;1.25;;;;;;;19.29;51.13;96390.47;10402309;28;20048;-30
2024/01/01 17:59:58;;;;;;;2.05;1.15;;;;;;;19.28;51.28;96398.97;10397913;28;20041;-33
2024/01/01 18:05:08;;;;;;;2.63;1.30;;;;;;;19.20;50.98;96377.88;10402287;28;20148;-30
2024/01/01 18:10:11;;;;;;;2.90;1.30;;;;;;;19.24;51.32;96382.09;10402062;28;20029;-31
2024/01/01 18:15:13;;;;;;;2.15;1.30;;;;;;;19.23;51.00;96388.84;10399675;28;20040;-30
2024/01/01 18:20:14;;;;;;;5.28;1.80;;;;;;;19.20;51.18;96381.25;10402710;28;20048;-30
2024/01/01 18:25:14;;;;;;;2.72;1.02;;;;;;;19.15;51.03;96377.88;10404048;28;20447;-30
2024/01/01 18:30:15;;;;;;;2.70;1.00;;;;;;;19.19;50.62;96387.16;10400577;28;20037;-30
2024/01/01 18:35:15;;;;;;;3.83;0.97;;;;;;;19.19;50.67;96391.41;10409272;28;20084;-31
2024/01/01 18:40:16;;;;;;;3.00;1.20;;;;;;;19.20;50.64;96396.50;10406473;28;20045;-29
2024/01/01 18:45:16;;;;;;;2.15;1.20;;;;;;;19.21;50.83;96390.56;10408667;28;20036;-30
2024/01/01 18:50:19;;;;;;;2.33;1.23;;;;;;;19.24;50.01;96402.38;10393965;28;20087;-30
2024/01/01 18:55:20;;;;;;;4.50;1.33;;;;;;;19.24;51.54;96402.38;10407893;28;20033;-30
2024/01/01 19:00:20;;;;;;;3.33;1.70;;;;;;;19.21;51.64;96389.69;10407592;28;20045;-31
2024/01/01 19:05:20;;;;;;;4.43;2.47;;;;;;;19.14;50.64;96366.03;10396367;28;20034;-30
2024/01/01 19:10:21;;;;;;;6.47;1.87;;;;;;;19.23;51.00;96382.91;10389173;28;20067;-28
2024/01/01 19:15:21;;;;;;;7.57;2.17;;;;;;;19.22;52.31;96386.31;10393406;28;20044;-32
2024/01/01 19:20:22;;;;;;;3.87;1.50;;;;;;;19.17;52.42;96370.25;10389667;28;20041;-30
2024/01/01 19:25:24;;;;;;;5.27;2.33;;;;;;;19.19;52.59;96381.25;10394645;28;20034;-31
2024/01/01 19:30:25;;;;;;;6.82;2.22;;;;;;;19.18;52.38;96356.72;10389242;28;20488;-29
2024/01/01 19:35:26;;;;;;;7.13;1.95;;;;;;;19.14;52.71;96355.91;10398103;28;20415;-30
2024/01/01 19:40:26;;;;;;;8.13;2.40;;;;;;;19.14;52.57;96349.97;10395784;28;20029;-30
2024/01/01 19:45:27;;;;;;;4.73;1.87;;;;;;;19.12;52.27;96355.06;10398190;28;20052;-29
2024/01/01 19:50:27;;;;;;;5.47;2.50;;;;;;;19.03;52.41;96334.00;10382264;28;20635;-30
2024/01/01 19:55:27;;;;;;;5.03;2.17;;;;;;;19.16;52.32;96353.34;10388056;28;20365;-29
2024/01/01 20:00:28;;;;;;;4.20;2.07;;;;;;;19.15;52.04;96346.56;10378624;28;20044;-30
2024/01/01 20:05:28;;;;;;;4.03;2.00;;;;;;;19.16;51.85;96336.41;10385674;28;20633;-29
2024/01/01 20:10:28;;;;;;;6.00;2.70;;;;;;;19.16;51.91;96345.75;10383560;28;20037;-29
2024/01/01 20:15:29;;;;;;;5.30;1.97;;;;;;;19.16;51.88;96335.59;10395732;28;20044;-29
2024/01/01 20:20:29;;;;;;;6.17;1.80;;;;;;;19.14;51.93;96324.59;10390942;28;20091;-30
2024/01/01 20:25:29;;;;;;;3.80;1.83;;;;;;;19.15;51.75;96311.03;10389200;28;20044;-29
2024/01/01 20:30:30;;;;;;;2.60;1.83;;;;;;;19.14;51.92;96297.53;10379440;28;20275;-29
2024/01/01 20:35:31;;;;;;;5.03;1.90;;;;;;;19.14;51.67;96274.69;10384847;28;20533;-30
2024/01/01 20:40:32;;;;;;;5.80;2.20;;;;;;;19.12;51.78;96266.25;10386548;28;20391;-30
2024/01/01 20:45:32;;;;;;;4.30;2.03;;;;;;;19.15;51.55;96270.44;10388544;28;20052;-29
2024/01/01 20:50:32;;;;;;;3.43;1.67;;;;;;;19.14;51.63;96263.69;10392332;28;20041;-30
2024/01/01 20:55:33;;;;;;;5.32;2.15;;;;;;;19.14;51.55;96268.75;10395002;28;20032;-30
2024/01/01 21:00:34;;;;;;;3.03;1.90;;;;;;;19.14;51.81;96267.09;10385663;28;20415;-31
2024/01/01 21:05:35;;;;;;;3.97;1.77;;;;;;;19.15;52.21;96247.59;10388705;28;20713;-30
2024/01/01 21:10:35;;;;;;;4.93;1.80;;;;;;;19.10;52.03;96247.66;10391719;28;20034;-29
2024/01/01 21:15:35;;;;;;;28.30;3.60;;;;;;;19.07;51.87;96224.84;10388363;28;20034;-30
2024/01/01 21:20:37;;;;;;;4.35;1.88;;;;;;;19.10;51.85;96234.16;10394060;28;20080;-29
2024/01/01 21:25:38;;;;;;;4.53;1.60;;;;;;;19.12;51.73;96232.41;10393006;28;20393;-30
2024/01/01 21:30:38;;;;;;;3.90;1.83;;;;;;;19.09;51.73;96217.25;10393211;28;20049;-32
2024/01/01 21:35:38;;;;;;;3.43;1.90;;;;;;;19.10;52.17;96201.97;10401062;28;20299;-30
2024/01/01 21:40:39;;;;;;;4.07;1.60;;;;;;;19.12;52.23;96199.44;10403666;28;20283;-29
2024/01/01 21:45:39;;;;;;;3.50;1.67;;;;;;;19.09;52.45;96204.56;10399500;28;20030;-30
2024/01/01 21:50:39;;;;;;;4.77;1.60;;;;;;;19.08;52.47;96187.66;10396637;28;20041;-30
2024/01/01 21:55:44;;;;;;;4.97;1.50;;;;;;;19.03;52.55;96174.16;10399499;28;20127;-30
2024/01/01 22:00:44;;;;;;;2.63;1.50;;;;;;;19.08;52.38;96197.81;10405670;28;20464;-31
2024/01/01 22:05:48;;;;;;;2.77;1.47;;;;;;;19.05;52.93;96192.75;10404807;28;20030;-30
2024/01/01 22:10:50;;;;;;;1.55;1.27;;;;;;;19.06;52.85;96199.50;10408579;28;20474;-30
2024/01/01 22:15:51;;;;;;;4.03;1.52;;;;;;;19.04;52.62;96202.06;10398612;28;20030;-31
2024/01/01 22:20:51;;;;;;;1.92;1.42;;;;;;;19.08;53.07;96213.03;10398072;28;20045;-30
2024/01/01 22:25:52;;;;;;;2.73;1.23;;;;;;;19.06;53.63;96199.50;10406098;28;20075;-29
2024/01/01 22:30:52;;;;;;;1.83;1.60;;;;;;;19.05;53.09;96213.03;10401135;28;20029;-29
2024/01/01 22:35:52;;;;;;;6.43;1.90;;;;;;;19.04;53.13;96216.44;10393343;28;20295;-30
2024/01/01 22:40:53;;;;;;;3.33;1.60;;;;;;;19.04;53.09;96206.28;10401708;28;20046;-29
2024/01/01 22:45:53;;;;;;;3.20;1.80;;;;;;;19.03;53.15;96209.69;10403306;28;20260;-31
2024/01/01 22:50:53;;;;;;;2.70;1.40;;;;;;;19.05;53.23;96205.44;10399202;28;20029;-29
2024/01/01 22:55:55;;;;;;;2.45;1.50;;;;;;;19.03;52.94;96197.00;10402081;28;20033;-29
2024/01/01 23:00:55;;;;;;;5.68;1.70;;;;;;;18.96;53.02;96182.69;10395558;28;20400;-30
2024/01/01 23:05:55;;;;;;;2.97;1.50;;;;;;;19.02;53.07;96180.09;10402364;28;20044;-28
2024/01/01 23:10:56;;;;;;;3.23;1.33;;;;;;;19.02;53.38;96182.63;10402036;28;20036;-29
2024/01/01 23:15:56;;;;;;;2.33;1.05;;;;;;;19.02;53.13;96172.50;10401091;28;20110;-30